createdAt,value
2019-06-26T00:00:18.706Z,69.62
2019-06-26T00:01:18.589Z,70.32
2019-06-26T00:02:18.564Z,70.02
2019-06-26T00:03:18.567Z,70.51
2019-06-26T00:04:18.542Z,70.12
2019-06-26T00:05:18.557Z,70.32
2019-06-26T00:06:18.537Z,70.32
2019-06-26T00:07:18.535Z,70.72
2019-06-26T00:08:18.529Z,70.45
2019-06-26T00:09:18.497Z,71.04
2019-06-26T00:10:18.516Z,70.65
2019-06-26T00:11:18.486Z,71.04
2019-06-26T00:12:18.490Z,71.34
2019-06-26T00:13:26.001Z,71.25
2019-06-26T00:14:18.433Z,71.74
2019-06-26T00:15:18.455Z,71.64
2019-06-26T00:16:18.428Z,71.28
2019-06-26T00:17:18.408Z,71.67
2019-06-26T00:18:18.406Z,72.07
2019-06-26T00:19:18.413Z,72.47
2019-06-26T00:20:18.435Z,72.27
2019-06-26T00:21:21.837Z,71.74
2019-06-26T00:22:18.411Z,71.84
2019-06-26T00:23:18.355Z,71.44
2019-06-26T00:24:18.327Z,71.84
2019-06-26T00:25:18.336Z,71.64
2019-06-26T00:26:18.315Z,71.64
2019-06-26T00:27:18.302Z,71.84
2019-06-26T00:28:18.290Z,72.14
2019-06-26T00:29:18.293Z,71.84
2019-06-26T00:30:18.288Z,71.64
2019-06-26T00:31:18.252Z,71.54
2019-06-26T00:32:18.258Z,71.70
2019-06-26T00:33:18.238Z,71.51
2019-06-26T00:34:18.226Z,71.61
2019-06-26T00:35:18.215Z,71.70
2019-06-26T00:36:18.209Z,71.61
2019-06-26T00:37:18.212Z,71.51
2019-06-26T00:38:18.180Z,71.91
2019-06-26T00:39:18.996Z,71.70
2019-06-26T00:40:18.271Z,71.70
2019-06-26T00:41:18.181Z,71.51
2019-06-26T00:42:18.132Z,72.14
2019-06-26T00:43:18.124Z,71.51
2019-06-26T00:44:18.121Z,71.91
2019-06-26T00:45:18.120Z,72.44
2019-06-26T00:46:18.115Z,72.04
2019-06-26T00:47:18.077Z,72.14
2019-06-26T00:48:18.067Z,73.03
2019-06-26T00:49:18.068Z,72.47
2019-06-26T00:50:18.051Z,73.07
2019-06-26T00:51:18.065Z,73.36
2019-06-26T00:52:18.033Z,72.04
2019-06-26T00:53:18.029Z,72.17
2019-06-26T00:54:18.000Z,73.07
2019-06-26T00:55:18.001Z,73.27
2019-06-26T00:56:17.999Z,73.86
2019-06-26T00:57:17.976Z,73.07
2019-06-26T00:58:17.958Z,73.66
2019-06-26T00:59:17.955Z,73.76
2019-06-26T01:00:17.941Z,73.76
2019-06-26T01:01:17.942Z,73.66
2019-06-26T01:03:27.435Z,73.27
2019-06-26T01:04:28.390Z,73.53
2019-06-26T01:05:28.368Z,73.36
2019-06-26T01:06:28.391Z,73.46
2019-06-26T01:07:28.348Z,73.86
2019-06-26T01:08:28.346Z,73.66
2019-06-26T01:09:28.333Z,73.36
2019-06-26T01:10:28.325Z,73.82
2019-06-26T01:11:28.362Z,73.82
2019-06-26T01:12:28.300Z,73.53
2019-06-26T01:13:28.312Z,73.53
2019-06-26T01:14:28.287Z,73.23
2019-06-26T01:15:28.262Z,73.43
2019-06-26T01:16:28.277Z,73.63
2019-06-26T01:17:28.247Z,73.53
2019-06-26T01:18:28.231Z,73.33
2019-06-26T01:19:28.220Z,73.33
2019-06-26T01:20:28.215Z,74.02
2019-06-26T01:21:28.229Z,73.82
2019-06-26T01:22:28.195Z,73.07
2019-06-26T01:23:28.200Z,73.63
2019-06-26T01:24:28.191Z,73.33
2019-06-26T01:25:28.153Z,73.63
2019-06-26T01:26:28.164Z,73.72
2019-06-26T01:27:28.148Z,73.53
2019-06-26T01:28:28.144Z,73.72
2019-06-26T01:29:28.122Z,73.43
2019-06-26T01:30:28.114Z,73.72
2019-06-26T01:31:28.118Z,73.86
2019-06-26T01:32:28.117Z,73.76
2019-06-26T01:33:28.080Z,73.63
2019-06-26T01:34:28.078Z,73.86
2019-06-26T01:35:28.078Z,74.16
2019-06-26T01:36:28.060Z,74.46
2019-06-26T01:37:28.030Z,74.26
2019-06-26T01:38:28.011Z,74.16
2019-06-26T01:39:28.004Z,73.96
2019-06-26T01:40:28.050Z,73.96
2019-06-26T01:41:28.004Z,74.35
2019-06-26T01:42:27.974Z,74.06
2019-06-26T01:43:27.968Z,74.35
2019-06-26T01:44:27.949Z,74.55
2019-06-26T01:45:27.943Z,74.55
2019-06-26T01:46:27.963Z,74.65
2019-06-26T01:47:27.918Z,74.85
2019-06-26T01:48:27.907Z,75.15
2019-06-26T01:49:27.899Z,75.09
2019-06-26T01:50:27.896Z,75.25
2019-06-26T01:51:27.907Z,75.29
2019-06-26T01:52:27.868Z,75.25
2019-06-26T01:53:27.892Z,75.18
2019-06-26T01:54:27.850Z,74.95
2019-06-26T01:55:27.843Z,75.59
2019-06-26T01:56:27.836Z,75.38
2019-06-26T01:57:27.809Z,75.38
2019-06-26T01:58:27.832Z,75.48
2019-06-26T01:59:27.814Z,75.38
2019-06-26T02:00:27.788Z,75.48
2019-06-26T02:01:27.784Z,75.42
2019-06-26T02:02:27.767Z,75.12
2019-06-26T02:03:27.759Z,75.52
2019-06-26T02:04:27.741Z,76.61
2019-06-26T02:05:27.731Z,76.72
2019-06-26T02:06:27.733Z,77.11
2019-06-26T02:07:27.704Z,77.15
2019-06-26T02:08:27.715Z,77.75
2019-06-26T02:09:27.689Z,77.75
2019-06-26T02:10:27.679Z,77.94
2019-06-26T02:11:27.692Z,77.84
2019-06-26T02:12:27.657Z,77.94
2019-06-26T02:13:27.641Z,77.75
2019-06-26T02:14:31.444Z,77.70
2019-06-26T02:15:27.633Z,77.81
2019-06-26T02:16:27.629Z,77.75
2019-06-26T02:17:27.645Z,77.45
2019-06-26T02:18:27.582Z,77.64
2019-06-26T02:19:27.566Z,77.75
2019-06-26T02:20:27.568Z,77.78
2019-06-26T02:21:27.591Z,78.78
2019-06-26T02:22:27.552Z,78.78
2019-06-26T02:23:27.536Z,78.88
2019-06-26T02:24:27.523Z,78.61
2019-06-26T02:25:27.517Z,79.11
2019-06-26T02:26:27.514Z,79.11
2019-06-26T02:27:27.536Z,79.11
2019-06-26T02:28:27.485Z,79.41
2019-06-26T02:29:27.506Z,79.41
2019-06-26T02:30:27.455Z,80.41
2019-06-26T02:31:27.684Z,80.71
2019-06-26T02:32:27.439Z,79.81
2019-06-26T02:33:27.426Z,79.81
2019-06-26T02:34:27.422Z,80.41
2019-06-26T02:35:27.405Z,80.00
2019-06-26T02:36:27.400Z,79.51
2019-06-26T02:37:27.403Z,79.51
2019-06-26T02:38:27.368Z,79.77
2019-06-26T02:39:27.366Z,79.87
2019-06-26T02:40:27.356Z,80.07
2019-06-26T02:41:27.344Z,79.57
2019-06-26T02:42:27.341Z,79.27
2019-06-26T02:43:27.323Z,79.81
2019-06-26T02:44:27.326Z,80.36
2019-06-26T02:45:27.300Z,80.80
2019-06-26T02:46:27.280Z,80.07
2019-06-26T02:47:27.284Z,80.17
2019-06-26T02:48:27.265Z,79.97
2019-06-26T02:49:27.253Z,80.80
2019-06-26T02:50:27.232Z,80.66
2019-06-26T02:51:27.226Z,80.66
2019-06-26T02:52:27.250Z,80.96
2019-06-26T02:53:27.211Z,80.17
2019-06-26T02:54:27.210Z,79.67
2019-06-26T02:55:27.188Z,79.57
2019-06-26T02:56:27.195Z,80.41
2019-06-26T02:57:27.181Z,80.36
2019-06-26T02:58:27.178Z,80.66
2019-06-26T02:59:27.133Z,80.66
2019-06-26T03:00:27.137Z,80.57
2019-06-26T03:01:27.128Z,80.77
2019-06-26T03:02:27.127Z,80.90
2019-06-26T03:04:36.284Z,81.40
2019-06-26T03:05:37.274Z,81.10
2019-06-26T03:06:37.262Z,81.01
2019-06-26T03:07:37.268Z,81.10
2019-06-26T03:08:37.240Z,80.51
2019-06-26T03:09:37.221Z,80.30
2019-06-26T03:10:37.224Z,80.71
2019-06-26T03:11:37.207Z,81.20
2019-06-26T03:12:37.216Z,81.30
2019-06-26T03:13:37.186Z,81.20
2019-06-26T03:14:37.172Z,80.90
2019-06-26T03:15:37.156Z,81.70
2019-06-26T03:16:37.149Z,81.40
2019-06-26T03:17:37.168Z,81.30
2019-06-26T03:18:37.137Z,81.64
2019-06-26T03:19:37.116Z,81.54
2019-06-26T03:20:37.111Z,81.64
2019-06-26T03:21:37.104Z,81.54
2019-06-26T03:22:37.120Z,82.14
2019-06-26T03:23:37.071Z,81.40
2019-06-26T03:24:37.073Z,81.54
2019-06-26T03:25:37.073Z,81.64
2019-06-26T03:26:37.055Z,81.84
2019-06-26T03:27:37.239Z,81.44
2019-06-26T03:28:37.050Z,81.64
2019-06-26T03:29:37.021Z,82.04
2019-06-26T03:30:37.010Z,81.84
2019-06-26T03:31:37.001Z,81.74
2019-06-26T03:32:36.997Z,82.04
2019-06-26T03:33:36.988Z,82.34
2019-06-26T03:34:37.161Z,82.14
2019-06-26T03:35:40.553Z,82.50
2019-06-26T03:36:36.935Z,81.84
2019-06-26T03:37:36.927Z,81.04
2019-06-26T03:38:36.938Z,82.34
2019-06-26T03:39:36.894Z,81.84
2019-06-26T03:40:36.910Z,81.84
2019-06-26T03:41:36.887Z,82.04
2019-06-26T03:42:36.868Z,82.20
2019-06-26T03:43:36.880Z,82.00
2019-06-26T03:44:36.858Z,81.70
2019-06-26T03:45:36.842Z,82.10
2019-06-26T03:46:36.822Z,82.00
2019-06-26T03:47:36.812Z,81.90
2019-06-26T03:48:36.812Z,81.74
2019-06-26T03:49:36.796Z,82.20
2019-06-26T03:50:36.774Z,82.10
2019-06-26T03:51:36.770Z,82.20
2019-06-26T03:52:36.769Z,81.80
2019-06-26T03:53:36.773Z,81.40
2019-06-26T03:54:36.739Z,81.80
2019-06-26T03:55:36.729Z,81.50
2019-06-26T03:56:36.713Z,81.60
2019-06-26T03:57:36.701Z,81.50
2019-06-26T03:58:36.716Z,81.70
2019-06-26T03:59:36.693Z,80.87
2019-06-26T04:00:36.676Z,81.46
2019-06-26T04:01:36.658Z,81.10
2019-06-26T04:02:36.681Z,81.36
2019-06-26T04:03:36.650Z,81.36
2019-06-26T04:04:36.628Z,81.26
2019-06-26T04:05:36.620Z,80.96
2019-06-26T04:06:36.602Z,81.66
2019-06-26T04:07:36.598Z,81.56
2019-06-26T04:08:36.610Z,81.36
2019-06-26T04:09:36.581Z,81.16
2019-06-26T04:10:36.559Z,81.36
2019-06-26T04:11:36.554Z,80.77
2019-06-26T04:12:36.550Z,81.36
2019-06-26T04:13:36.549Z,81.36
2019-06-26T04:14:36.520Z,81.66
2019-06-26T04:15:41.894Z,81.46
2019-06-26T04:16:36.489Z,81.36
2019-06-26T04:17:36.490Z,81.16
2019-06-26T04:18:36.597Z,81.46
2019-06-26T04:19:36.469Z,81.06
2019-06-26T04:20:36.479Z,81.36
2019-06-26T04:21:36.456Z,81.66
2019-06-26T04:22:36.445Z,81.26
2019-06-26T04:23:36.443Z,81.02
2019-06-26T04:24:36.419Z,81.23
2019-06-26T04:25:38.271Z,80.93
2019-06-26T04:26:36.393Z,80.83
2019-06-26T04:27:36.373Z,81.23
2019-06-26T04:28:36.415Z,81.23
2019-06-26T04:29:36.376Z,80.53
2019-06-26T04:30:36.352Z,81.02
2019-06-26T04:31:36.359Z,80.73
2019-06-26T04:32:36.411Z,80.43
2019-06-26T04:33:37.057Z,80.59
2019-06-26T04:34:36.563Z,79.69
2019-06-26T04:35:36.331Z,80.09
2019-06-26T04:36:37.043Z,79.75
2019-06-26T04:37:37.039Z,79.69
2019-06-26T04:38:37.040Z,79.26
2019-06-26T04:39:37.057Z,79.26
2019-06-26T04:40:36.313Z,79.06
2019-06-26T04:41:36.235Z,78.86
2019-06-26T04:42:36.213Z,78.42
2019-06-26T04:43:36.213Z,78.42
2019-06-26T04:44:36.211Z,78.72
2019-06-26T04:45:36.185Z,77.69
2019-06-26T04:46:36.178Z,77.80
2019-06-26T04:47:36.155Z,77.36
2019-06-26T04:48:36.155Z,77.76
2019-06-26T04:49:36.163Z,76.76
2019-06-26T04:50:36.131Z,76.67
2019-06-26T04:51:36.131Z,76.73
2019-06-26T04:52:36.105Z,76.63
2019-06-26T04:53:36.100Z,74.91
2019-06-26T04:54:36.117Z,75.24
2019-06-26T04:55:36.077Z,75.63
2019-06-26T04:56:36.076Z,76.46
2019-06-26T04:57:36.062Z,75.84
2019-06-26T04:58:36.044Z,76.14
2019-06-26T04:59:36.061Z,75.10
2019-06-26T05:00:36.033Z,75.14
2019-06-26T05:01:36.021Z,75.34
2019-06-26T05:02:36.025Z,74.84
2019-06-26T05:03:35.993Z,75.10
2019-06-26T05:05:45.182Z,75.34
2019-06-26T05:06:46.189Z,75.24
2019-06-26T05:07:46.150Z,75.10
2019-06-26T05:08:46.144Z,75.10
2019-06-26T05:09:46.150Z,75.40
2019-06-26T05:10:46.129Z,74.41
2019-06-26T05:11:46.107Z,74.27
2019-06-26T05:12:46.096Z,74.41
2019-06-26T05:13:46.098Z,75.01
2019-06-26T05:14:46.214Z,75.40
2019-06-26T05:15:46.082Z,75.27
2019-06-26T05:16:46.068Z,75.44
2019-06-26T05:17:46.040Z,75.24
2019-06-26T05:18:46.028Z,75.14
2019-06-26T05:19:46.029Z,75.74
2019-06-26T05:20:46.051Z,75.44
2019-06-26T05:21:46.006Z,75.10
2019-06-26T05:22:46.001Z,75.14
2019-06-26T05:23:45.996Z,75.24
2019-06-26T05:24:46.584Z,75.60
2019-06-26T05:25:45.983Z,74.71
2019-06-26T05:26:45.951Z,74.71
2019-06-26T05:27:45.930Z,75.44
2019-06-26T05:28:45.926Z,74.91
2019-06-26T05:29:45.955Z,75.40
2019-06-26T05:30:45.928Z,75.01
2019-06-26T05:31:45.902Z,75.60
2019-06-26T05:32:45.898Z,73.88
2019-06-26T05:33:45.870Z,73.98
2019-06-26T05:34:45.886Z,74.51
2019-06-26T05:35:45.896Z,75.31
2019-06-26T05:36:45.852Z,74.97
2019-06-26T05:37:45.889Z,74.04
2019-06-26T05:38:45.827Z,73.02
2019-06-26T05:39:45.819Z,72.82
2019-06-26T05:40:45.835Z,73.02
2019-06-26T05:41:45.868Z,72.99
2019-06-26T05:42:45.788Z,73.49
2019-06-26T05:43:45.861Z,73.35
2019-06-26T05:44:45.751Z,73.05
2019-06-26T05:45:45.774Z,73.15
2019-06-26T05:46:45.756Z,73.11
2019-06-26T05:47:45.730Z,73.22
2019-06-26T05:48:45.721Z,72.72
2019-06-26T05:49:45.702Z,71.99
2019-06-26T05:50:45.710Z,72.59
2019-06-26T05:51:45.701Z,71.93
2019-06-26T05:52:45.951Z,73.55
2019-06-26T05:53:45.655Z,73.68
2019-06-26T05:54:45.649Z,74.27
2019-06-26T05:55:45.764Z,73.45
2019-06-26T05:56:45.730Z,73.05
2019-06-26T05:57:48.441Z,73.65
2019-06-26T05:58:45.634Z,74.18
2019-06-26T05:59:45.619Z,73.22
2019-06-26T06:00:45.613Z,73.25
2019-06-26T06:01:46.027Z,73.65
2019-06-26T06:02:45.565Z,73.68
2019-06-26T06:03:45.562Z,73.35
2019-06-26T06:04:45.716Z,73.15
2019-06-26T06:05:45.551Z,73.15
2019-06-26T06:06:45.548Z,72.82
2019-06-26T06:07:45.675Z,73.45
2019-06-26T06:08:45.540Z,73.85
2019-06-26T06:09:45.498Z,73.78
2019-06-26T06:10:46.578Z,74.24
2019-06-26T06:11:45.559Z,73.22
2019-06-26T06:12:45.591Z,73.15
2019-06-26T06:13:45.445Z,73.55
2019-06-26T06:14:45.483Z,73.41
2019-06-26T06:15:45.432Z,72.92
2019-06-26T06:16:47.869Z,73.02
2019-06-26T06:17:45.921Z,72.49
2019-06-26T06:18:45.588Z,72.92
2019-06-26T06:19:45.755Z,72.69
2019-06-26T06:20:45.390Z,72.98
2019-06-26T06:21:45.394Z,72.82
2019-06-26T06:22:45.353Z,73.61
2019-06-26T06:23:45.379Z,72.52
2019-06-26T06:24:45.329Z,73.22
2019-06-26T06:25:45.333Z,73.41
2019-06-26T06:26:45.391Z,72.92
2019-06-26T06:27:47.977Z,72.82
2019-06-26T06:28:45.304Z,72.72
2019-06-26T06:29:45.282Z,73.51
2019-06-26T06:30:45.272Z,73.11
2019-06-26T06:31:45.499Z,72.19
2019-06-26T06:32:45.251Z,72.39
2019-06-26T06:33:45.242Z,71.50
2019-06-26T06:34:45.228Z,71.99
2019-06-26T06:35:45.216Z,72.49
2019-06-26T06:36:48.048Z,72.29
2019-06-26T06:37:46.496Z,71.86
2019-06-26T06:38:45.183Z,71.66
2019-06-26T06:39:45.185Z,71.96
2019-06-26T06:40:45.168Z,71.56
2019-06-26T06:41:45.160Z,70.94
2019-06-26T06:42:45.183Z,71.66
2019-06-26T06:43:45.143Z,71.70
2019-06-26T06:44:46.059Z,72.35
2019-06-26T06:45:45.987Z,72.09
2019-06-26T06:46:45.106Z,72.25
2019-06-26T06:47:45.160Z,71.17
2019-06-26T06:48:45.104Z,71.56
2019-06-26T06:49:45.077Z,71.53
2019-06-26T06:50:45.054Z,71.76
2019-06-26T06:51:45.056Z,71.37
2019-06-26T06:52:45.063Z,71.56
2019-06-26T06:53:45.049Z,71.03
2019-06-26T06:54:45.059Z,71.33
2019-06-26T06:55:45.045Z,71.47
2019-06-26T06:56:45.006Z,71.53
2019-06-26T06:57:45.034Z,71.37
2019-06-26T06:58:45.028Z,71.23
2019-06-26T06:59:44.964Z,70.61
2019-06-26T07:00:45.015Z,68.89
2019-06-26T07:01:44.948Z,69.19
2019-06-26T07:02:44.987Z,69.59
2019-06-26T07:03:44.921Z,69.59
2019-06-26T07:04:45.106Z,69.09
2019-06-26T07:06:54.428Z,70.84
2019-06-26T07:07:55.223Z,71.17
2019-06-26T07:08:55.121Z,71.14
2019-06-26T07:09:55.103Z,70.31
2019-06-26T07:10:55.093Z,69.95
2019-06-26T07:11:55.090Z,70.61
2019-06-26T07:12:55.133Z,69.62
2019-06-26T07:13:55.053Z,69.71
2019-06-26T07:14:55.058Z,69.78
2019-06-26T07:15:55.049Z,69.49
2019-06-26T07:16:55.037Z,68.96
2019-06-26T07:17:55.045Z,68.57
2019-06-26T07:18:55.001Z,69.09
2019-06-26T07:19:55.003Z,68.86
2019-06-26T07:20:55.004Z,68.66
2019-06-26T07:21:54.996Z,68.37
2019-06-26T07:22:54.994Z,68.99
2019-06-26T07:23:55.605Z,68.76
2019-06-26T07:24:54.962Z,67.35
2019-06-26T07:25:54.934Z,67.12
2019-06-26T07:26:54.975Z,66.63
2019-06-26T07:27:54.926Z,66.63
2019-06-26T07:28:54.913Z,67.32
2019-06-26T07:29:54.914Z,66.66
2019-06-26T07:30:54.890Z,67.05
2019-06-26T07:31:54.944Z,67.55
2019-06-26T07:32:54.868Z,67.44
2019-06-26T07:33:55.906Z,66.56
2019-06-26T07:34:54.863Z,67.35
2019-06-26T07:35:54.825Z,66.56
2019-06-26T07:36:54.815Z,64.95
2019-06-26T07:37:54.976Z,65.41
2019-06-26T07:38:54.838Z,65.15
2019-06-26T07:40:00.278Z,65.31
2019-06-26T07:40:54.765Z,64.75
2019-06-26T07:41:54.766Z,64.49
2019-06-26T07:42:54.767Z,65.25
2019-06-26T07:43:54.759Z,64.92
2019-06-26T07:44:54.934Z,63.57
2019-06-26T07:45:54.767Z,64.36
2019-06-26T07:46:54.713Z,64.23
2019-06-26T07:47:54.690Z,63.37
2019-06-26T07:48:57.519Z,63.15
2019-06-26T07:49:54.676Z,63.21
2019-06-26T07:50:54.658Z,63.12
2019-06-26T07:51:54.646Z,62.10
2019-06-26T07:52:54.649Z,63.28
2019-06-26T07:53:54.656Z,63.02
2019-06-26T07:54:54.636Z,62.88
2019-06-26T07:55:54.619Z,62.59
2019-06-26T07:56:54.595Z,62.59
2019-06-26T07:57:54.582Z,62.26
2019-06-26T07:58:54.601Z,62.95
2019-06-26T07:59:54.832Z,63.24
2019-06-26T08:00:54.546Z,63.15
2019-06-26T08:01:54.544Z,62.92
2019-06-26T08:02:54.539Z,62.92
2019-06-26T08:03:54.569Z,62.72
2019-06-26T08:04:54.516Z,63.21
2019-06-26T08:05:54.504Z,62.65
2019-06-26T08:06:54.494Z,63.47
2019-06-26T08:07:54.479Z,63.96
2019-06-26T08:08:54.553Z,63.57
2019-06-26T08:09:54.611Z,64.00
2019-06-26T08:10:54.504Z,64.06
2019-06-26T08:11:54.454Z,63.87
2019-06-26T08:12:54.426Z,63.37
2019-06-26T08:13:54.447Z,64.16
2019-06-26T08:14:54.408Z,63.05
2019-06-26T08:15:54.597Z,63.15
2019-06-26T08:16:54.400Z,62.72
2019-06-26T08:18:00.441Z,62.82
2019-06-26T08:18:54.424Z,62.33
2019-06-26T08:19:55.062Z,61.21
2019-06-26T08:21:11.087Z,61.61
2019-06-26T08:21:54.324Z,61.74
2019-06-26T08:22:54.561Z,62.23
2019-06-26T08:23:54.603Z,62.23
2019-06-26T08:24:54.565Z,61.93
2019-06-26T08:25:54.587Z,62.03
2019-06-26T08:26:54.291Z,61.80
2019-06-26T08:27:54.273Z,60.99
2019-06-26T08:28:54.356Z,59.78
2019-06-26T08:29:54.287Z,59.97
2019-06-26T08:30:54.479Z,59.81
2019-06-26T08:31:54.313Z,59.25
2019-06-26T08:32:54.220Z,59.84
2019-06-26T08:33:54.204Z,58.56
2019-06-26T08:34:54.222Z,59.94
2019-06-26T08:35:54.222Z,59.64
2019-06-26T08:36:54.169Z,59.94
2019-06-26T08:38:08.900Z,58.33
2019-06-26T08:38:55.192Z,58.60
2019-06-26T08:39:54.183Z,58.01
2019-06-26T08:40:54.203Z,58.53
2019-06-26T08:41:54.241Z,58.01
2019-06-26T08:42:54.123Z,57.81
2019-06-26T08:43:54.162Z,57.81
2019-06-26T08:44:54.113Z,58.50
2019-06-26T08:45:54.078Z,58.23
2019-06-26T08:46:54.063Z,58.01
2019-06-26T08:47:54.061Z,59.64
2019-06-26T08:48:54.066Z,59.64
2019-06-26T08:49:54.216Z,59.64
2019-06-26T08:50:54.033Z,58.04
2019-06-26T08:51:54.017Z,58.23
2019-06-26T08:52:54.009Z,58.14
2019-06-26T08:53:53.991Z,58.40
2019-06-26T08:54:54.007Z,58.11
2019-06-26T08:55:54.016Z,57.78
2019-06-26T08:56:54.009Z,57.26
2019-06-26T08:57:54.016Z,56.68
2019-06-26T08:58:53.965Z,56.97
2019-06-26T08:59:54.050Z,56.28
2019-06-26T09:00:53.906Z,56.21
2019-06-26T09:01:53.907Z,55.69
2019-06-26T09:02:54.022Z,54.91
2019-06-26T09:03:54.073Z,55.82
2019-06-26T09:04:54.037Z,55.82
2019-06-26T09:05:53.880Z,55.69
2019-06-26T09:08:03.482Z,55.43
2019-06-26T09:09:04.447Z,55.20
2019-06-26T09:10:04.413Z,55.33
2019-06-26T09:11:04.387Z,55.52
2019-06-26T09:12:05.310Z,55.52
2019-06-26T09:13:04.435Z,55.82
2019-06-26T09:14:04.355Z,56.01
2019-06-26T09:15:04.854Z,55.82
2019-06-26T09:16:04.333Z,55.30
2019-06-26T09:17:04.413Z,55.72
2019-06-26T09:18:04.406Z,56.28
2019-06-26T09:19:04.308Z,56.90
2019-06-26T09:20:04.543Z,56.77
2019-06-26T09:21:04.274Z,55.82
2019-06-26T09:22:04.262Z,56.31
2019-06-26T09:23:04.270Z,55.82
2019-06-26T09:24:04.334Z,56.90
2019-06-26T09:25:20.360Z,57.12
2019-06-26T09:26:04.245Z,57.32
2019-06-26T09:27:04.246Z,57.76
2019-06-26T09:28:04.223Z,57.86
2019-06-26T09:29:04.225Z,57.59
2019-06-26T09:30:04.482Z,56.28
2019-06-26T09:31:04.213Z,56.38
2019-06-26T09:32:04.300Z,55.96
2019-06-26T09:33:04.166Z,55.99
2019-06-26T09:34:04.361Z,55.79
2019-06-26T09:35:04.149Z,55.27
2019-06-26T09:36:06.872Z,55.76
2019-06-26T09:37:04.114Z,55.96
2019-06-26T09:38:04.091Z,55.99
2019-06-26T09:39:04.126Z,56.65
2019-06-26T09:40:04.114Z,55.99
2019-06-26T09:41:04.114Z,55.57
2019-06-26T09:42:04.071Z,54.85
2019-06-26T09:43:04.052Z,54.85
2019-06-26T09:44:04.042Z,54.44
2019-06-26T09:45:04.042Z,53.82
2019-06-26T09:46:04.028Z,54.04
2019-06-26T09:47:04.157Z,54.24
2019-06-26T09:48:04.177Z,54.27
2019-06-26T09:49:04.041Z,53.75
2019-06-26T09:50:03.976Z,53.45
2019-06-26T09:51:03.998Z,53.03
2019-06-26T09:52:03.950Z,53.16
2019-06-26T09:53:05.313Z,53.87
2019-06-26T09:54:03.943Z,52.99
2019-06-26T09:55:03.926Z,52.25
2019-06-26T09:56:03.926Z,51.69
2019-06-26T09:57:03.908Z,51.20
2019-06-26T09:58:03.900Z,51.86
2019-06-26T09:59:03.887Z,50.76
2019-06-26T10:00:03.911Z,49.26
2019-06-26T10:01:03.908Z,48.75
2019-06-26T10:02:03.858Z,48.85
2019-06-26T10:03:03.844Z,48.48
2019-06-26T10:04:03.832Z,50.27
2019-06-26T10:05:04.173Z,50.68
2019-06-26T10:06:03.820Z,49.97
2019-06-26T10:07:03.809Z,48.99
2019-06-26T10:08:03.779Z,49.09
2019-06-26T10:09:03.787Z,48.80
2019-06-26T10:10:03.772Z,49.11
2019-06-26T10:11:03.781Z,48.72
2019-06-26T10:12:03.743Z,49.38
2019-06-26T10:13:03.774Z,49.29
2019-06-26T10:14:03.733Z,49.04
2019-06-26T10:15:03.750Z,48.72
2019-06-26T10:16:03.757Z,48.33
2019-06-26T10:17:03.712Z,48.14
2019-06-26T10:18:04.411Z,47.11
2019-06-26T10:19:10.060Z,48.07
2019-06-26T10:20:03.740Z,47.97
2019-06-26T10:21:03.659Z,48.30
2019-06-26T10:22:03.666Z,48.11
2019-06-26T10:23:03.647Z,47.91
2019-06-26T10:24:03.628Z,48.80
2019-06-26T10:25:03.745Z,47.03
2019-06-26T10:26:03.598Z,46.62
2019-06-26T10:27:03.867Z,47.13
2019-06-26T10:28:03.584Z,46.91
2019-06-26T10:29:03.586Z,46.81
2019-06-26T10:30:03.563Z,46.74
2019-06-26T10:31:03.553Z,46.94
2019-06-26T10:32:03.550Z,46.23
2019-06-26T10:33:03.522Z,46.15
2019-06-26T10:34:03.525Z,45.37
2019-06-26T10:35:03.497Z,45.93
2019-06-26T10:36:03.489Z,46.50
2019-06-26T10:37:03.519Z,47.03
2019-06-26T10:38:03.489Z,47.03
2019-06-26T10:39:03.553Z,47.01
2019-06-26T10:40:03.451Z,47.01
2019-06-26T10:41:03.458Z,46.91
2019-06-26T10:42:04.625Z,45.89
2019-06-26T10:43:03.421Z,46.11
2019-06-26T10:44:03.419Z,46.11
2019-06-26T10:45:03.408Z,46.47
2019-06-26T10:46:03.408Z,46.86
2019-06-26T10:47:03.419Z,46.86
2019-06-26T10:48:03.393Z,46.65
2019-06-26T10:49:03.358Z,46.55
2019-06-26T10:50:03.388Z,46.55
2019-06-26T10:51:03.358Z,46.04
2019-06-26T10:52:03.418Z,46.06
2019-06-26T10:53:03.494Z,46.67
2019-06-26T10:54:03.350Z,46.06
2019-06-26T10:55:03.416Z,46.06
2019-06-26T10:56:03.296Z,46.37
2019-06-26T10:57:03.375Z,45.97
2019-06-26T10:58:03.277Z,45.97
2019-06-26T10:59:03.257Z,45.57
2019-06-26T11:00:03.269Z,45.18
2019-06-26T11:01:03.236Z,44.57
2019-06-26T11:02:03.236Z,43.79
2019-06-26T11:03:03.238Z,44.35
2019-06-26T11:04:03.221Z,43.85
2019-06-26T11:05:03.195Z,43.57
2019-06-26T11:06:03.310Z,43.93
2019-06-26T11:07:03.187Z,44.91
2019-06-26T11:09:12.381Z,45.43
2019-06-26T11:10:13.344Z,46.55
2019-06-26T11:11:13.333Z,48.36
2019-06-26T11:12:13.442Z,48.19
2019-06-26T11:13:13.373Z,48.58
2019-06-26T11:14:13.307Z,48.90
2019-06-26T11:15:13.297Z,48.94
2019-06-26T11:16:13.297Z,48.14
2019-06-26T11:17:13.279Z,47.63
2019-06-26T11:18:13.368Z,47.63
2019-06-26T11:19:13.258Z,46.55
2019-06-26T11:20:13.250Z,46.65
2019-06-26T11:21:13.236Z,46.77
2019-06-26T11:22:13.219Z,48.14
2019-06-26T11:23:13.233Z,47.92
2019-06-26T11:24:13.208Z,47.97
2019-06-26T11:25:13.192Z,46.57
2019-06-26T11:26:13.190Z,46.84
2019-06-26T11:27:13.169Z,47.04
2019-06-26T11:28:13.206Z,46.01
2019-06-26T11:29:13.156Z,45.82
2019-06-26T11:30:13.142Z,46.80
2019-06-26T11:31:13.181Z,47.02
2019-06-26T11:32:13.125Z,47.82
2019-06-26T11:33:13.133Z,48.09
2019-06-26T11:34:13.114Z,47.99
2019-06-26T11:35:13.153Z,48.38
2019-06-26T11:36:13.105Z,48.38
2019-06-26T11:37:13.084Z,48.07
2019-06-26T11:38:13.084Z,47.36
2019-06-26T11:39:13.062Z,46.99
2019-06-26T11:40:13.090Z,48.09
2019-06-26T11:41:13.463Z,46.75
2019-06-26T11:42:13.028Z,47.63
2019-06-26T11:43:13.034Z,47.92
2019-06-26T11:44:13.111Z,48.50
2019-06-26T11:45:13.011Z,47.87
2019-06-26T11:46:12.983Z,48.38
2019-06-26T11:47:12.998Z,48.48
2019-06-26T11:48:12.981Z,48.68
2019-06-26T11:49:12.945Z,48.97
2019-06-26T11:50:12.949Z,48.38
2019-06-26T11:51:12.939Z,48.34
2019-06-26T11:52:12.926Z,46.68
2019-06-26T11:53:12.936Z,46.88
2019-06-26T11:54:12.913Z,48.11
2019-06-26T11:55:12.893Z,48.72
2019-06-26T11:56:12.887Z,48.02
2019-06-26T11:57:12.903Z,47.80
2019-06-26T11:58:12.980Z,46.80
2019-06-26T11:59:12.854Z,47.50
2019-06-26T12:00:13.007Z,47.89
2019-06-26T12:01:12.827Z,48.09
2019-06-26T12:02:12.824Z,47.70
2019-06-26T12:03:13.406Z,47.80
2019-06-26T12:04:12.832Z,47.80
2019-06-26T12:05:12.792Z,46.82
2019-06-26T12:06:19.056Z,47.89
2019-06-26T12:07:12.772Z,46.89
2019-06-26T12:08:12.776Z,46.04
2019-06-26T12:09:12.771Z,48.11
2019-06-26T12:10:12.953Z,48.14
2019-06-26T12:11:12.734Z,48.43
2019-06-26T12:12:12.716Z,47.72
2019-06-26T12:13:12.707Z,47.82
2019-06-26T12:14:12.718Z,46.72
2019-06-26T12:15:12.690Z,48.09
2019-06-26T12:16:12.717Z,46.72
2019-06-26T12:17:12.669Z,46.80
2019-06-26T12:18:12.657Z,46.84
2019-06-26T12:19:12.667Z,47.11
2019-06-26T12:20:19.410Z,46.06
2019-06-26T12:21:12.624Z,48.02
2019-06-26T12:22:12.624Z,47.60
2019-06-26T12:23:12.596Z,47.67
2019-06-26T12:24:12.620Z,48.58
2019-06-26T12:25:12.580Z,49.77
2019-06-26T12:26:12.616Z,48.60
2019-06-26T12:27:12.555Z,49.09
2019-06-26T12:28:12.606Z,49.16
2019-06-26T12:29:12.554Z,50.63
2019-06-26T12:30:12.533Z,49.75
2019-06-26T12:31:12.594Z,50.63
2019-06-26T12:32:12.504Z,50.51
2019-06-26T12:33:12.499Z,48.90
2019-06-26T12:34:12.538Z,48.41
2019-06-26T12:35:12.474Z,47.31
2019-06-26T12:36:12.461Z,46.80
2019-06-26T12:37:12.459Z,46.73
2019-06-26T12:38:12.436Z,47.63
2019-06-26T12:39:12.463Z,48.05
2019-06-26T12:40:12.422Z,47.38
2019-06-26T12:41:12.419Z,48.07
2019-06-26T12:42:12.458Z,48.46
2019-06-26T12:43:12.394Z,48.36
2019-06-26T12:44:12.386Z,46.31
2019-06-26T12:45:12.393Z,46.89
2019-06-26T12:46:12.365Z,47.48
2019-06-26T12:47:12.361Z,48.55
2019-06-26T12:48:15.960Z,48.36
2019-06-26T12:49:12.338Z,48.54
2019-06-26T12:50:12.332Z,48.55
2019-06-26T12:51:12.317Z,48.94
2019-06-26T12:52:12.350Z,48.65
2019-06-26T12:53:13.144Z,48.26
2019-06-26T12:54:12.286Z,48.14
2019-06-26T12:55:12.281Z,47.95
2019-06-26T12:56:12.253Z,48.02
2019-06-26T12:57:12.246Z,48.43
2019-06-26T12:58:17.913Z,48.02
2019-06-26T12:59:12.221Z,48.58